< Typhoon 201510 2015 Season Typhoon 201512 >
Typhoon 201511 (NANGKA)
General InformationTrack Information on Google MapsDetailed Wind InformationForecast History on Google MapsAccess Analytics MapList of All Images || NewsDisaster Info.WeblogTrackbackTyphoon FrontTwiphoonTyphoon Now!Typhoon ImaginationDisaster Info. XMLResourceGoogle EarthGE AnimationAtom FeedGeoJSON
Detalied Best Track (Time Zone = UTC)
Year Month Day Hour Lat. Long. Pressure (hPa) Wind (kt) Class Image Chart
2015 7 2 18 8.3 171.8 1004 0 2 Image Chart
2015 7 3 00 8.5 171.7 1004 0 2 Image Chart
2015 7 3 06 8.7 171.6 1002 0 2 Image Chart
2015 7 3 12 9.0 171.5 1002 0 2 Image Chart
2015 7 3 18 9.8 170.8 1000 35 3 Image Chart
2015 7 4 00 10.3 170.3 998 35 3 Image Chart
2015 7 4 06 10.9 168.8 996 40 3 Image Chart
2015 7 4 12 11.2 167.1 994 40 3 Image Chart
2015 7 4 18 11.1 165.9 992 45 3 Image Chart
2015 7 5 00 11.3 164.7 992 45 3 Image Chart
2015 7 5 06 11.2 163.8 990 45 3 Image Chart
2015 7 5 12 11.0 162.5 985 50 4 Image Chart
2015 7 5 18 11.5 161.0 980 55 4 Image Chart
2015 7 6 00 11.7 159.9 975 60 4 Image Chart
2015 7 6 06 11.7 158.6 970 60 4 Image Chart
2015 7 6 12 12.2 157.8 965 65 5 Image Chart
2015 7 6 18 12.6 156.8 955 75 5 Image Chart
2015 7 7 00 13.1 155.6 945 85 5 Image Chart
2015 7 7 06 13.7 154.5 935 90 5 Image Chart
2015 7 7 12 14.3 153.5 925 100 5 Image Chart
2015 7 7 18 15.0 152.2 925 100 5 Image Chart
2015 7 8 00 15.4 150.7 930 95 5 Image Chart
2015 7 8 06 15.4 149.9 935 90 5 Image Chart
2015 7 8 12 16.0 149.0 935 90 5 Image Chart
2015 7 8 18 16.6 147.8 930 95 5 Image Chart
2015 7 9 00 17.0 146.8 930 95 5 Image Chart
2015 7 9 06 17.6 145.9 925 100 5 Image Chart
2015 7 9 12 18.0 144.5 925 100 5 Image Chart
2015 7 9 18 18.2 143.6 925 100 5 Image Chart
2015 7 10 00 18.2 142.7 925 100 5 Image Chart
2015 7 10 06 18.4 142.0 930 95 5 Image Chart
2015 7 10 12 18.2 141.3 935 90 5 Image Chart
2015 7 10 18 18.3 140.7 940 85 5 Image Chart
2015 7 11 00 18.3 140.0 940 85 5 Image Chart
2015 7 11 06 18.3 139.5 945 85 5 Image Chart
2015 7 11 12 18.4 139.0 950 80 5 Image Chart
2015 7 11 18 18.4 138.4 950 80 5 Image Chart
2015 7 12 00 18.4 137.8 955 75 5 Image Chart
2015 7 12 06 18.6 137.6 955 75 5 Image Chart
2015 7 12 12 18.7 137.5 960 70 5 Image Chart
2015 7 12 18 19.0 137.2 960 70 5 Image Chart
2015 7 13 00 19.6 137.2 960 70 5 Image Chart
2015 7 13 06 20.5 137.1 955 75 5 Image Chart
2015 7 13 12 21.3 136.9 950 80 5 Image Chart
2015 7 13 18 22.2 136.6 950 80 5 Image Chart
2015 7 14 00 22.7 136.5 950 80 5 Image Chart
2015 7 14 06 23.7 136.6 950 80 5 Image Chart
2015 7 14 12 24.4 136.6 950 80 5 Image Chart
2015 7 14 18 25.5 136.5 945 85 5 Image Chart
2015 7 15 00 26.5 136.3 945 85 5 Image Chart
2015 7 15 06 27.6 136.0 945 85 5 Image Chart
2015 7 15 12 29.0 135.6 945 85 5 Image Chart
2015 7 15 18 30.0 135.3 950 80 5 Image Chart
2015 7 16 00 31.0 134.7 955 75 5 Image Chart
2015 7 16 03 31.4 134.6 955 75 5 Image Chart
2015 7 16 06 32.0 134.6 960 70 5 Image Chart
2015 7 16 09 32.5 134.5 960 70 5 Image Chart
2015 7 16 12 33.0 134.3 960 70 5 Image Chart
2015 7 16 14 33.4 134.1 965 65 5 Image Chart
2015 7 16 15 33.6 134.0 970 65 5 Image Chart
2015 7 16 18 34.1 133.7 975 60 4 Image Chart
2015 7 16 21 34.5 133.6 985 55 4 Image Chart
2015 7 17 00 35.0 133.4 990 50 4 Image Chart
2015 7 17 03 35.3 133.4 992 45 3 Image Chart
2015 7 17 06 35.7 133.6 994 35 3 Image Chart
2015 7 17 12 36.8 134.3 998 0 2 Image Chart
2015 7 17 18 38.0 135.2 1002 0 2 Image Chart
2015 7 18 00 39.0 136.0 1004 0 2 Image Chart
2015 7 18 06 40.0 136.5 1004 0 2 Image Chart
Japan Meteorological Agency Best Track Data | Correction Date : 2015-08-14
< Typhoon 201510 2015 Season Typhoon 201512 >

Help